createdAt,value
2022-11-16T09:25:59.337Z,922.90
2022-11-16T09:28:32.386Z,926.00
2022-11-16T09:31:06.344Z,925.35
2022-11-16T09:33:38.334Z,932.30
2022-11-16T09:36:11.754Z,932.30
2022-11-16T09:41:57.955Z,934.20
2022-11-16T09:44:47.262Z,934.33
2022-11-16T09:47:22.027Z,933.45
2022-11-16T09:50:02.734Z,933.75
2022-11-16T09:52:39.839Z,935.85
2022-11-16T09:55:26.569Z,931.28
2022-11-16T09:58:04.814Z,928.47
2022-11-16T10:00:38.639Z,931.70
2022-11-16T10:03:14.991Z,931.30
2022-11-16T10:05:53.542Z,931.92
2022-11-16T10:08:30.658Z,930.78
2022-11-16T10:11:16.635Z,926.90
2022-11-16T10:14:04.510Z,934.40
2022-11-16T10:16:43.073Z,929.22
2022-11-16T10:19:20.654Z,929.85
2022-11-16T10:21:59.562Z,927.17
2022-11-16T10:24:41.954Z,928.38
2022-11-16T10:27:38.178Z,930.60
2022-11-16T10:30:20.103Z,930.00
2022-11-16T10:32:57.516Z,930.60
2022-11-16T10:35:32.795Z,930.22
2022-11-16T10:38:05.514Z,927.08
2022-11-16T10:40:41.524Z,925.35
2022-11-16T10:43:17.900Z,926.28
2022-11-16T10:46:00.674Z,927.03
2022-11-16T10:48:41.535Z,927.20
2022-11-16T10:51:13.789Z,927.33
2022-11-16T10:53:46.875Z,927.85
2022-11-16T10:56:23.136Z,928.35
2022-11-16T10:58:58.309Z,928.33
2022-11-16T11:01:39.720Z,937.33
2022-11-16T11:04:26.441Z,943.65
2022-11-16T11:07:01.538Z,946.60
2022-11-16T11:09:35.872Z,928.92
2022-11-16T11:12:30.827Z,924.97
2022-11-16T11:15:09.734Z,928.00
2022-11-16T11:17:47.574Z,927.08
2022-11-16T11:20:28.005Z,927.45
2022-11-16T11:23:06.637Z,924.72
2022-11-16T11:25:41.966Z,929.78
2022-11-16T11:28:21.930Z,928.20
2022-11-16T11:31:00.516Z,928.92
2022-11-16T11:33:38.183Z,928.90
2022-11-16T11:36:19.297Z,927.92
2022-11-16T11:39:01.406Z,929.67
2022-11-16T11:41:39.114Z,926.60
2022-11-16T11:44:19.618Z,927.97
2022-11-16T11:47:35.578Z,924.70
2022-11-16T11:49:53.555Z,927.97
2022-11-16T11:52:33.213Z,924.03
2022-11-16T11:55:05.997Z,925.20
2022-11-16T11:57:42.961Z,927.80
2022-11-16T12:00:18.285Z,934.35
2022-11-16T12:03:23.135Z,926.10
2022-11-16T12:06:11.587Z,927.80
2022-11-16T12:09:14.345Z,924.00
2022-11-16T12:11:58.065Z,927.42
2022-11-16T12:14:43.758Z,927.13
2022-11-16T12:17:20.423Z,926.80
2022-11-16T12:20:20.014Z,925.08
2022-11-16T12:23:24.935Z,919.72
2022-11-16T12:27:02.088Z,865.65
2022-11-16T12:29:43.981Z,861.17
2022-11-16T12:35:44.713Z,900.00
2022-11-16T12:49:16.283Z,923.97
2022-11-16T12:52:04.579Z,930.20
2022-11-16T12:55:24.076Z,927.05
2022-11-16T12:57:57.962Z,934.40
2022-11-16T13:11:26.075Z,790.83
2022-11-16T13:14:02.843Z,790.92
2022-11-16T13:16:34.875Z,788.35
2022-11-16T13:19:45.074Z,787.13
2022-11-16T13:23:52.158Z,790.50
2022-11-16T13:26:30.543Z,792.83
2022-11-16T13:29:13.104Z,791.97
2022-11-16T13:31:52.552Z,792.80
2022-11-16T13:40:04.886Z,999.90
2022-11-16T13:42:46.807Z,999.90
2022-11-16T13:45:22.865Z,52.47
2022-11-16T13:59:39.619Z,644.00
2022-11-16T14:02:33.779Z,660.08
2022-11-16T14:05:07.193Z,676.03
2022-11-16T14:07:45.142Z,674.25
2022-11-16T14:10:53.024Z,683.15
2022-11-16T14:13:44.341Z,846.17
2022-11-16T14:16:50.504Z,854.87
2022-11-16T14:19:53.020Z,826.83
2022-11-16T14:22:56.881Z,820.10
2022-11-16T14:25:42.029Z,817.45
2022-11-16T14:28:38.721Z,821.15
2022-11-16T14:31:18.820Z,813.40
2022-11-16T14:33:58.643Z,808.17
2022-11-16T14:36:43.097Z,802.40
2022-11-16T14:39:31.145Z,802.60
2022-11-16T14:42:06.062Z,802.42
2022-11-16T14:44:41.638Z,802.78
2022-11-16T14:47:25.232Z,800.45
2022-11-16T14:49:59.533Z,798.50
2022-11-16T14:52:38.241Z,796.13
2022-11-16T14:55:12.243Z,798.25
2022-11-16T14:57:44.029Z,796.92
2022-11-16T15:00:22.878Z,773.40
2022-11-16T15:03:02.353Z,777.75
2022-11-16T15:05:39.274Z,790.65
2022-11-16T15:08:22.124Z,794.95
2022-11-16T15:10:53.884Z,792.35
2022-11-16T15:13:27.444Z,791.92
2022-11-16T15:16:17.749Z,791.40
2022-11-16T15:19:02.883Z,791.53
2022-11-16T15:21:36.833Z,790.47
2022-11-16T15:24:29.455Z,791.90
2022-11-16T15:27:05.691Z,792.97
2022-11-16T15:29:37.843Z,787.58
2022-11-16T15:34:42.712Z,790.65
2022-11-16T15:37:17.179Z,788.75
2022-11-16T15:39:48.985Z,788.50
2022-11-16T15:42:20.357Z,789.80
2022-11-16T15:47:24.864Z,785.50
2022-11-16T15:49:56.847Z,788.83
2022-11-16T15:52:50.571Z,787.95
2022-11-16T15:55:32.074Z,787.78
2022-11-16T15:58:25.858Z,788.10
2022-11-16T16:00:58.268Z,792.17
2022-11-16T16:03:31.910Z,784.92
2022-11-16T16:06:04.533Z,788.70
2022-11-16T16:08:40.037Z,786.10
2022-11-16T16:11:29.306Z,789.15
2022-11-16T16:14:02.725Z,786.78
2022-11-16T16:16:37.016Z,781.92
2022-11-16T16:19:27.404Z,782.95
2022-11-16T16:21:59.742Z,786.38
2022-11-16T16:24:43.647Z,785.67
2022-11-16T16:27:18.791Z,786.40
2022-11-16T16:29:51.431Z,784.53
2022-11-16T16:32:27.371Z,784.63
2022-11-16T16:35:00.045Z,786.78
2022-11-16T16:37:33.759Z,784.17
2022-11-16T16:40:08.464Z,785.50
2022-11-16T16:42:41.430Z,786.60
2022-11-16T16:45:18.906Z,781.05
2022-11-16T16:47:50.755Z,788.83
2022-11-16T16:50:22.312Z,763.20
2022-11-16T16:52:53.945Z,783.40
2022-11-16T16:55:28.957Z,775.53
2022-11-16T16:58:03.067Z,787.00
2022-11-16T17:00:34.796Z,784.95
2022-11-16T17:03:06.612Z,786.22
2022-11-16T17:05:38.485Z,787.08
2022-11-16T17:08:10.066Z,788.33
2022-11-16T17:10:44.219Z,785.80
2022-11-16T17:13:17.959Z,787.85
2022-11-16T17:15:49.497Z,785.50
2022-11-16T17:18:21.984Z,787.30
2022-11-16T17:20:53.615Z,788.47
2022-11-16T17:25:59.433Z,780.92
2022-11-16T17:28:31.159Z,782.65
2022-11-16T17:31:05.142Z,785.13
2022-11-16T17:33:37.588Z,792.95
2022-11-16T17:36:10.876Z,798.58
2022-11-16T17:38:43.067Z,804.20
2022-11-16T17:41:18.605Z,798.35
2022-11-16T17:43:50.421Z,804.85
2022-11-16T17:46:23.685Z,802.28
2022-11-16T17:48:55.890Z,800.75
2022-11-16T17:51:30.052Z,805.90
2022-11-16T17:54:01.904Z,805.38
2022-11-16T17:56:35.847Z,808.58
2022-11-16T17:59:07.639Z,804.88
2022-11-16T18:01:39.636Z,803.35
2022-11-16T18:04:11.457Z,807.13
2022-11-16T18:06:42.885Z,807.63
2022-11-16T18:09:14.563Z,806.95
2022-11-16T18:11:48.576Z,808.22
2022-11-16T18:14:20.218Z,805.72
2022-11-16T18:16:52.190Z,805.03
2022-11-16T18:19:24.139Z,807.10
2022-11-16T18:21:55.685Z,806.40
2022-11-16T18:24:27.310Z,806.80
2022-11-16T18:27:01.745Z,805.38
2022-11-16T18:29:33.765Z,804.50
2022-11-16T18:32:05.169Z,806.45
2022-11-16T18:34:36.859Z,804.70
2022-11-16T18:37:08.192Z,803.67
2022-11-16T18:39:39.774Z,803.72
2022-11-16T18:42:14.630Z,808.25
2022-11-16T18:44:46.333Z,805.28
2022-11-16T18:47:18.009Z,806.25
2022-11-16T18:49:49.573Z,804.50
2022-11-16T18:52:21.133Z,805.55
2022-11-16T18:54:52.879Z,802.67
2022-11-16T18:57:26.784Z,800.40
2022-11-16T18:59:58.382Z,799.90
2022-11-16T19:02:29.723Z,800.95
2022-11-16T19:05:01.443Z,804.75
2022-11-16T19:07:34.061Z,804.22
2022-11-16T19:10:05.808Z,804.28
2022-11-16T19:12:39.709Z,802.15
2022-11-16T19:15:11.749Z,804.88
2022-11-16T19:18:06.373Z,801.95
2022-11-16T19:20:34.650Z,800.38
2022-11-16T19:23:06.405Z,801.15
2022-11-16T19:25:38.159Z,803.42
2022-11-16T19:28:12.422Z,801.40
2022-11-16T19:30:44.025Z,801.90
2022-11-16T19:33:15.508Z,806.88
2022-11-16T19:35:47.300Z,802.55
2022-11-16T19:38:18.650Z,800.63
2022-11-16T19:40:53.370Z,802.38
2022-11-16T19:43:27.500Z,804.10
2022-11-16T19:45:59.184Z,799.80
2022-11-16T19:48:30.467Z,802.75
2022-11-16T19:51:08.179Z,800.70
2022-11-16T19:53:40.264Z,796.15
2022-11-16T19:56:14.269Z,801.67
2022-11-16T19:58:48.453Z,803.67
2022-11-16T20:01:22.125Z,803.35
2022-11-16T20:03:53.571Z,799.63
2022-11-16T20:06:26.778Z,802.72
2022-11-16T20:09:01.225Z,802.90
2022-11-16T20:11:36.637Z,802.58
2022-11-16T20:14:13.842Z,803.88
2022-11-16T20:16:50.579Z,764.28
2022-11-16T20:19:21.954Z,806.25
2022-11-16T20:21:55.539Z,803.50
2022-11-16T20:24:27.049Z,803.00
2022-11-16T20:26:58.744Z,805.60
2022-11-16T20:29:32.644Z,804.15
2022-11-16T20:32:04.429Z,801.47
2022-11-16T20:34:35.946Z,800.00
2022-11-16T20:37:08.832Z,796.03
2022-11-16T20:39:40.338Z,773.67
2022-11-16T20:42:12.388Z,803.25
2022-11-16T20:44:46.287Z,802.17
2022-11-16T20:47:18.598Z,806.30
2022-11-16T20:49:49.906Z,801.40
2022-11-16T20:52:21.785Z,802.15
2022-11-16T20:54:53.209Z,802.88
2022-11-16T20:57:24.926Z,802.85
2022-11-16T20:59:58.737Z,799.50
2022-11-16T21:02:30.799Z,801.22
2022-11-16T21:05:02.082Z,801.08
2022-11-16T21:07:33.865Z,797.38
2022-11-16T21:10:23.170Z,799.58
2022-11-16T21:13:07.481Z,799.55
2022-11-16T21:15:41.717Z,800.42
2022-11-16T21:18:13.421Z,802.55
2022-11-16T21:20:44.697Z,799.85
2022-11-16T21:23:16.368Z,797.92
2022-11-16T21:25:48.116Z,798.63
2022-11-16T21:28:25.167Z,800.58
2022-11-16T21:31:04.881Z,801.38
2022-11-16T21:33:37.673Z,801.10
2022-11-16T21:36:10.974Z,800.72
2022-11-16T21:38:42.724Z,801.35
2022-11-16T21:41:15.910Z,798.03
2022-11-16T21:43:47.984Z,798.90
2022-11-16T21:46:25.040Z,800.67
2022-11-16T21:48:57.320Z,789.53
2022-11-16T21:51:31.234Z,800.35
2022-11-16T21:54:02.816Z,799.80
2022-11-16T21:59:05.316Z,801.47
2022-11-16T22:04:35.046Z,798.42
2022-11-16T22:07:18.891Z,801.78
2022-11-16T22:09:50.498Z,799.88
2022-11-16T22:15:45.613Z,800.15
2022-11-16T22:18:20.187Z,797.78
2022-11-16T22:20:52.570Z,798.58
2022-11-16T22:23:24.382Z,801.80
2022-11-16T22:25:56.748Z,803.83
2022-11-16T22:28:28.553Z,798.05
2022-11-16T22:31:04.488Z,801.13
2022-11-16T22:33:39.539Z,799.55
2022-11-16T22:36:13.853Z,799.78
2022-11-16T22:38:45.613Z,799.28
2022-11-16T22:41:16.999Z,798.88
2022-11-16T22:43:48.673Z,798.65
2022-11-16T22:46:19.954Z,802.08
2022-11-16T22:48:54.326Z,802.47
2022-11-16T22:51:27.649Z,801.63
2022-11-16T22:54:01.839Z,799.72
2022-11-16T22:56:35.211Z,799.17
2022-11-16T22:59:07.531Z,802.17
2022-11-16T23:01:39.127Z,802.88
2022-11-16T23:04:13.427Z,801.70
2022-11-16T23:06:44.828Z,799.42
2022-11-16T23:09:16.577Z,800.58
2022-11-16T23:12:00.283Z,797.47
2022-11-16T23:14:44.389Z,799.97
2022-11-16T23:17:15.796Z,799.03
2022-11-16T23:20:02.620Z,799.75
2022-11-16T23:22:46.255Z,798.83
2022-11-16T23:25:30.295Z,786.67
2022-11-16T23:28:06.132Z,799.83
2022-11-16T23:30:40.052Z,803.58
2022-11-16T23:33:11.834Z,801.70
2022-11-16T23:35:46.230Z,800.05
2022-11-16T23:38:17.636Z,797.63
2022-11-16T23:40:49.714Z,800.53
2022-11-16T23:43:33.632Z,798.25
2022-11-16T23:46:05.547Z,799.78
2022-11-16T23:48:36.812Z,797.83
2022-11-16T23:51:11.095Z,797.00
2022-11-16T23:53:42.390Z,799.33
2022-11-16T23:56:14.391Z,797.80
2022-11-16T23:58:45.793Z,798.95
